createdAt,value
2018-07-17T00:00:36.409Z,0.00
2018-07-17T00:01:36.334Z,0.00
2018-07-17T00:02:36.254Z,0.00
2018-07-17T00:03:36.185Z,0.00
2018-07-17T00:04:36.097Z,0.00
2018-07-17T00:05:36.021Z,0.00
2018-07-17T00:06:35.942Z,0.00
2018-07-17T00:07:35.905Z,0.00
2018-07-17T00:08:35.793Z,0.00
2018-07-17T00:09:35.721Z,0.00
2018-07-17T00:10:35.637Z,0.00
2018-07-17T00:11:35.562Z,0.00
2018-07-17T00:12:35.511Z,0.00
2018-07-17T00:13:35.407Z,0.00
2018-07-17T00:14:35.321Z,0.00
2018-07-17T00:15:35.247Z,0.00
2018-07-17T00:16:35.174Z,0.00
2018-07-17T00:17:35.099Z,0.00
2018-07-17T00:18:35.009Z,0.00
2018-07-17T00:19:34.933Z,0.00
2018-07-17T00:20:34.862Z,0.00
2018-07-17T00:21:34.785Z,0.00
2018-07-17T00:22:34.695Z,0.00
2018-07-17T00:23:34.618Z,0.00
2018-07-17T00:24:34.546Z,0.00
2018-07-17T00:25:34.471Z,0.00
2018-07-17T00:26:34.400Z,0.00
2018-07-17T00:27:34.313Z,0.00
2018-07-17T00:28:34.232Z,0.00
2018-07-17T00:29:34.158Z,0.00
2018-07-17T00:30:34.087Z,0.00
2018-07-17T00:31:34.012Z,0.00
2018-07-17T00:32:33.925Z,0.00
2018-07-17T00:33:33.867Z,0.00
2018-07-17T00:34:33.772Z,0.00
2018-07-17T00:35:33.696Z,0.00
2018-07-17T00:36:33.614Z,0.00
2018-07-17T00:37:33.539Z,0.00
2018-07-17T00:38:33.461Z,0.00
2018-07-17T00:39:33.385Z,0.00
2018-07-17T00:40:33.295Z,0.00
2018-07-17T00:41:33.221Z,0.00
2018-07-17T00:42:33.149Z,0.00
2018-07-17T00:43:33.074Z,0.00
2018-07-17T00:44:32.986Z,0.00
2018-07-17T00:45:32.911Z,0.00
2018-07-17T00:46:32.840Z,0.00
2018-07-17T00:47:32.766Z,0.00
2018-07-17T00:48:32.677Z,0.00
2018-07-17T00:49:32.600Z,0.00
2018-07-17T00:50:32.522Z,0.00
2018-07-17T00:51:32.460Z,0.00
2018-07-17T00:52:32.364Z,0.00
2018-07-17T00:53:32.291Z,0.00
2018-07-17T00:54:32.209Z,0.00
2018-07-17T00:55:32.148Z,0.00
2018-07-17T00:56:32.050Z,0.00
2018-07-17T00:57:31.974Z,0.00
2018-07-17T00:58:31.904Z,0.00
2018-07-17T00:59:31.828Z,0.00
2018-07-17T01:00:31.747Z,0.00
2018-07-17T01:01:31.661Z,0.00
2018-07-17T01:02:31.590Z,0.00
2018-07-17T01:03:31.519Z,0.00
2018-07-17T01:04:31.431Z,0.00
2018-07-17T01:05:31.355Z,0.00
2018-07-17T01:06:31.288Z,0.00
2018-07-17T01:07:31.201Z,0.00
2018-07-17T01:08:31.122Z,0.00
2018-07-17T01:09:31.054Z,0.00
2018-07-17T01:10:30.964Z,0.00
2018-07-17T01:11:30.888Z,0.00
2018-07-17T01:12:30.800Z,0.00
2018-07-17T01:13:30.725Z,0.00
2018-07-17T01:14:30.653Z,0.00
2018-07-17T01:15:30.578Z,0.00
2018-07-17T01:16:30.491Z,0.00
2018-07-17T01:17:30.416Z,0.00
2018-07-17T01:18:30.344Z,0.00
2018-07-17T01:19:30.269Z,0.00
2018-07-17T01:20:30.191Z,0.00
2018-07-17T01:21:30.104Z,0.00
2018-07-17T01:22:30.042Z,0.00
2018-07-17T01:23:29.950Z,0.00
2018-07-17T01:24:29.866Z,0.00
2018-07-17T01:25:29.788Z,0.00
2018-07-17T01:26:29.718Z,0.00
2018-07-17T01:27:29.642Z,0.00
2018-07-17T01:28:29.571Z,0.00
2018-07-17T01:29:29.482Z,0.00
2018-07-17T01:30:29.416Z,0.00
2018-07-17T01:31:29.330Z,0.00
2018-07-17T01:32:29.243Z,0.00
2018-07-17T01:33:29.169Z,0.00
2018-07-17T01:34:29.089Z,0.00
2018-07-17T01:35:29.014Z,0.00
2018-07-17T01:36:28.928Z,0.00
2018-07-17T01:37:28.854Z,0.00
2018-07-17T01:38:28.847Z,0.00
2018-07-17T01:39:28.697Z,0.00
2018-07-17T01:40:28.622Z,0.00
2018-07-17T01:41:28.542Z,0.00
2018-07-17T01:42:28.472Z,0.00
2018-07-17T01:43:28.384Z,0.00
2018-07-17T01:44:28.307Z,0.00
2018-07-17T01:45:28.231Z,0.00
2018-07-17T01:46:28.152Z,0.00
2018-07-17T01:47:28.065Z,0.00
2018-07-17T01:48:27.997Z,0.00
2018-07-17T01:49:27.922Z,0.00
2018-07-17T01:50:27.847Z,0.00
2018-07-17T01:51:27.755Z,0.00
2018-07-17T01:52:27.678Z,0.00
2018-07-17T01:53:27.605Z,0.00
2018-07-17T01:54:27.520Z,0.00
2018-07-17T01:55:27.445Z,0.00
2018-07-17T01:56:27.370Z,0.00
2018-07-17T01:57:27.291Z,0.00
2018-07-17T01:58:27.208Z,0.00
2018-07-17T01:59:27.134Z,0.00
2018-07-17T02:00:27.061Z,0.00
2018-07-17T02:01:26.985Z,0.00
2018-07-17T02:02:26.894Z,0.00
2018-07-17T02:03:26.819Z,0.00
2018-07-17T02:04:26.746Z,0.00
2018-07-17T02:05:26.673Z,0.00
2018-07-17T02:06:26.580Z,0.00
2018-07-17T02:07:26.505Z,0.00
2018-07-17T02:08:26.445Z,0.00
2018-07-17T02:09:26.363Z,0.00
2018-07-17T02:10:26.282Z,0.00
2018-07-17T02:11:26.198Z,0.00
2018-07-17T02:12:26.121Z,0.00
2018-07-17T02:13:26.045Z,0.00
2018-07-17T02:14:25.961Z,0.00
2018-07-17T02:15:25.886Z,0.00
2018-07-17T02:16:25.810Z,0.00
2018-07-17T02:17:25.723Z,0.00
2018-07-17T02:18:25.646Z,0.00
2018-07-17T02:19:25.578Z,0.00
2018-07-17T02:20:25.501Z,0.00
2018-07-17T02:21:25.426Z,0.00
2018-07-17T02:22:25.346Z,0.00
2018-07-17T02:23:25.258Z,0.00
2018-07-17T02:24:25.181Z,0.00
2018-07-17T02:25:25.094Z,0.00
2018-07-17T02:26:25.024Z,0.00
2018-07-17T02:27:24.949Z,0.00
2018-07-17T02:28:24.870Z,0.00
2018-07-17T02:29:24.784Z,4.00
2018-07-17T02:30:24.713Z,4.00
2018-07-17T02:31:24.638Z,4.00
2018-07-17T02:32:24.562Z,4.00
2018-07-17T02:33:24.475Z,0.00
2018-07-17T02:34:24.396Z,4.00
2018-07-17T02:35:24.309Z,4.00
2018-07-17T02:36:24.239Z,8.00
2018-07-17T02:37:24.164Z,4.00
2018-07-17T02:38:24.087Z,8.00
2018-07-17T02:39:23.997Z,8.00
2018-07-17T02:40:23.921Z,8.00
2018-07-17T02:41:23.846Z,12.00
2018-07-17T02:42:23.831Z,12.00
2018-07-17T02:43:23.687Z,12.00
2018-07-17T02:44:23.608Z,16.00
2018-07-17T02:45:23.533Z,16.00
2018-07-17T02:46:23.462Z,20.00
2018-07-17T02:47:23.378Z,20.00
2018-07-17T02:48:23.303Z,24.00
2018-07-17T02:49:23.228Z,24.00
2018-07-17T02:50:23.136Z,28.00
2018-07-17T02:51:23.062Z,32.00
2018-07-17T02:52:23.011Z,32.00
2018-07-17T02:53:22.935Z,36.00
2018-07-17T02:54:22.822Z,40.00
2018-07-17T02:55:22.750Z,44.00
2018-07-17T02:56:22.676Z,48.00
2018-07-17T02:57:22.599Z,52.00
2018-07-17T02:58:22.538Z,56.00
2018-07-17T02:59:22.441Z,64.00
2018-07-17T03:00:22.362Z,68.00
2018-07-17T03:01:22.275Z,76.00
2018-07-17T03:02:22.204Z,76.00
2018-07-17T03:03:22.129Z,84.00
2018-07-17T03:04:22.053Z,88.00
2018-07-17T03:05:21.964Z,96.00
2018-07-17T03:06:21.886Z,100.00
2018-07-17T03:07:21.811Z,112.00
2018-07-17T03:08:21.755Z,116.00
2018-07-17T03:09:21.655Z,124.00
2018-07-17T03:10:21.576Z,136.00
2018-07-17T03:11:21.502Z,144.00
2018-07-17T03:12:21.411Z,156.00
2018-07-17T03:13:21.349Z,168.00
2018-07-17T03:14:21.265Z,184.00
2018-07-17T03:15:21.190Z,196.00
2018-07-17T03:16:21.111Z,208.00
2018-07-17T03:17:21.025Z,220.00
2018-07-17T03:18:20.953Z,228.00
2018-07-17T03:19:20.878Z,240.00
2018-07-17T03:20:20.797Z,248.00
2018-07-17T03:21:20.718Z,256.00
2018-07-17T03:22:20.651Z,268.00
2018-07-17T03:23:20.553Z,280.00
2018-07-17T03:24:20.480Z,300.00
2018-07-17T03:25:20.407Z,308.00
2018-07-17T03:26:20.326Z,328.00
2018-07-17T03:27:20.251Z,340.00
2018-07-17T03:28:20.168Z,352.00
2018-07-17T03:29:20.090Z,364.00
2018-07-17T03:30:20.020Z,380.00
2018-07-17T03:31:19.932Z,380.00
2018-07-17T03:32:19.852Z,380.00
2018-07-17T03:33:19.778Z,368.00
2018-07-17T03:34:19.705Z,364.00
2018-07-17T03:35:19.617Z,364.00
2018-07-17T03:36:19.555Z,372.00
2018-07-17T03:37:19.470Z,384.00
2018-07-17T03:38:19.379Z,396.00
2018-07-17T03:39:19.304Z,428.00
2018-07-17T03:40:19.233Z,476.00
2018-07-17T03:41:19.157Z,528.00
2018-07-17T03:42:19.065Z,584.00
2018-07-17T03:43:18.992Z,640.00
2018-07-17T03:44:18.916Z,684.00
2018-07-17T03:45:18.842Z,728.00
2018-07-17T03:46:18.759Z,780.00
2018-07-17T03:47:18.686Z,828.00
2018-07-17T03:48:18.606Z,876.00
2018-07-17T03:49:18.563Z,908.00
2018-07-17T03:50:18.448Z,936.00
2018-07-17T03:51:18.371Z,968.00
2018-07-17T03:52:18.296Z,992.00
2018-07-17T03:53:18.220Z,1016.00
2018-07-17T03:54:18.129Z,1048.00
2018-07-17T03:55:18.053Z,1084.00
2018-07-17T03:56:17.986Z,1128.00
2018-07-17T03:57:17.909Z,1172.00
2018-07-17T03:58:17.835Z,1212.00
2018-07-17T03:59:17.744Z,1248.00
2018-07-17T04:00:17.667Z,1280.00
2018-07-17T04:01:17.592Z,1308.00
2018-07-17T04:02:17.522Z,1348.00
2018-07-17T04:03:17.435Z,1396.00
2018-07-17T04:04:17.406Z,1448.00
2018-07-17T04:05:17.307Z,1480.00
2018-07-17T04:06:17.209Z,1492.00
2018-07-17T04:07:17.121Z,1508.00
2018-07-17T04:08:17.049Z,1532.00
2018-07-17T04:09:16.974Z,1560.00
2018-07-17T04:10:16.903Z,1584.00
2018-07-17T04:11:16.808Z,1624.00
2018-07-17T04:12:16.735Z,1668.00
2018-07-17T04:13:16.712Z,1712.00
2018-07-17T04:14:16.581Z,1764.00
2018-07-17T04:15:16.506Z,1812.00
2018-07-17T04:16:16.434Z,1848.00
2018-07-17T04:17:16.345Z,1876.00
2018-07-17T04:18:16.274Z,1920.00
2018-07-17T04:19:16.200Z,1984.00
2018-07-17T04:20:16.108Z,2056.00
2018-07-17T04:21:16.035Z,2144.00
2018-07-17T04:22:15.963Z,2244.00
2018-07-17T04:23:15.888Z,2336.00
2018-07-17T04:24:15.814Z,2412.00
2018-07-17T04:25:15.723Z,2444.00
2018-07-17T04:26:15.644Z,2448.00
2018-07-17T04:27:15.582Z,2424.00
2018-07-17T04:28:15.502Z,2392.00
2018-07-17T04:29:15.419Z,2360.00
2018-07-17T04:30:15.335Z,2332.00
2018-07-17T04:31:15.260Z,2308.00
2018-07-17T04:32:15.183Z,2296.00
2018-07-17T04:33:15.114Z,2304.00
2018-07-17T04:34:15.027Z,2336.00
2018-07-17T04:35:14.949Z,2392.00
2018-07-17T04:36:14.886Z,2460.00
2018-07-17T04:37:14.797Z,2556.00
2018-07-17T04:38:14.738Z,2700.00
2018-07-17T04:39:14.640Z,2860.00
2018-07-17T04:40:14.564Z,3036.00
2018-07-17T04:41:14.488Z,3220.00
2018-07-17T04:42:14.409Z,3400.00
2018-07-17T04:43:14.334Z,3552.00
2018-07-17T04:44:14.309Z,3660.00
2018-07-17T04:45:14.178Z,3744.00
2018-07-17T04:46:14.099Z,3840.00
2018-07-17T04:47:14.024Z,3904.00
2018-07-17T04:48:13.946Z,3916.00
2018-07-17T04:49:13.872Z,3924.00
2018-07-17T04:50:13.789Z,3956.00
2018-07-17T04:51:13.714Z,3988.00
2018-07-17T04:52:13.635Z,3972.00
2018-07-17T04:53:13.563Z,3920.00
2018-07-17T04:54:13.490Z,3904.00
2018-07-17T04:55:13.403Z,3908.00
2018-07-17T04:56:13.329Z,3944.00
2018-07-17T04:57:13.254Z,3936.00
2018-07-17T04:58:13.188Z,3936.00
2018-07-17T04:59:13.099Z,3956.00
2018-07-17T05:00:13.027Z,4032.00
2018-07-17T05:01:12.952Z,4072.00
2018-07-17T05:02:12.862Z,4040.00
2018-07-17T05:03:12.787Z,3944.00
2018-07-17T05:04:12.713Z,3856.00
2018-07-17T05:05:12.639Z,3800.00
2018-07-17T05:06:12.568Z,3756.00
2018-07-17T05:07:12.492Z,3664.00
2018-07-17T05:08:12.401Z,3592.00
2018-07-17T05:09:12.338Z,3560.00
2018-07-17T05:10:12.255Z,3532.00
2018-07-17T05:11:12.179Z,3508.00
2018-07-17T05:12:12.103Z,3476.00
2018-07-17T05:13:12.029Z,3440.00
2018-07-17T05:14:11.951Z,3400.00
2018-07-17T05:15:11.863Z,3408.00
2018-07-17T05:16:11.793Z,3460.00
2018-07-17T05:17:11.717Z,3540.00
2018-07-17T05:18:11.640Z,3612.00
2018-07-17T05:19:11.565Z,3644.00
2018-07-17T05:20:11.536Z,3624.00
2018-07-17T05:21:11.412Z,3572.00
2018-07-17T05:22:11.376Z,3512.00
2018-07-17T05:23:11.254Z,3468.00
2018-07-17T05:24:11.174Z,3472.00
2018-07-17T05:25:11.099Z,3512.00
2018-07-17T05:26:11.033Z,3608.00
2018-07-17T05:27:10.953Z,3724.00
2018-07-17T05:28:10.880Z,3812.00
2018-07-17T05:29:10.806Z,3880.00
2018-07-17T05:30:10.739Z,3972.00
2018-07-17T05:31:10.640Z,4060.00
2018-07-17T05:32:10.567Z,4116.00
2018-07-17T05:33:10.503Z,4204.00
2018-07-17T05:34:10.414Z,4300.00
2018-07-17T05:35:10.364Z,4340.00
2018-07-17T05:36:10.265Z,4392.00
2018-07-17T05:37:10.190Z,4472.00
2018-07-17T05:38:10.120Z,4548.00
2018-07-17T05:39:10.045Z,4596.00
2018-07-17T05:40:09.960Z,4600.00
2018-07-17T05:41:09.894Z,4572.00
2018-07-17T05:42:09.802Z,4540.00
2018-07-17T05:43:09.741Z,4480.00
2018-07-17T05:44:09.651Z,4416.00
2018-07-17T05:45:09.575Z,4288.00
2018-07-17T05:46:09.505Z,4140.00
2018-07-17T05:47:09.431Z,4024.00
2018-07-17T05:48:09.353Z,3952.00
2018-07-17T05:49:09.278Z,3956.00
2018-07-17T05:50:09.207Z,4036.00
2018-07-17T05:51:09.121Z,4148.00
2018-07-17T05:52:09.044Z,4220.00
2018-07-17T05:53:08.970Z,4224.00
2018-07-17T05:54:08.937Z,4200.00
2018-07-17T05:55:08.815Z,4176.00
2018-07-17T05:56:08.744Z,4200.00
2018-07-17T05:57:08.669Z,4296.00
2018-07-17T05:58:08.591Z,4444.00
2018-07-17T05:59:08.516Z,4632.00
2018-07-17T06:00:08.431Z,4808.00
2018-07-17T06:01:08.355Z,4896.00
2018-07-17T06:02:08.283Z,4900.00
2018-07-17T06:03:08.209Z,4836.00
2018-07-17T06:04:08.129Z,4764.00
2018-07-17T06:05:08.053Z,4692.00
2018-07-17T06:06:07.996Z,4648.00
2018-07-17T06:07:07.909Z,4632.00
2018-07-17T06:08:07.834Z,4696.00
2018-07-17T06:09:07.759Z,4788.00
2018-07-17T06:10:07.686Z,4920.00
2018-07-17T06:11:07.605Z,5124.00
2018-07-17T06:12:07.535Z,5368.00
2018-07-17T06:13:07.448Z,5560.00
2018-07-17T06:14:07.370Z,5728.00
2018-07-17T06:15:07.294Z,5880.00
2018-07-17T06:16:07.221Z,6100.00
2018-07-17T06:17:07.144Z,6332.00
2018-07-17T06:18:07.073Z,6552.00
2018-07-17T06:19:07.014Z,6772.00
2018-07-17T06:20:06.920Z,6992.00
2018-07-17T06:21:06.847Z,7276.00
2018-07-17T06:22:06.845Z,7568.00
2018-07-17T06:23:06.701Z,7852.00
2018-07-17T06:24:06.623Z,8144.00
2018-07-17T06:25:06.605Z,8400.00
2018-07-17T06:26:06.458Z,8644.00
2018-07-17T06:27:06.383Z,8856.00
2018-07-17T06:28:06.323Z,9080.00
2018-07-17T06:29:06.236Z,9248.00
2018-07-17T06:30:06.157Z,9412.00
2018-07-17T06:31:06.082Z,9600.00
2018-07-17T06:32:06.015Z,9808.00
2018-07-17T06:33:06.009Z,10048.00
2018-07-17T06:34:05.863Z,10228.00
2018-07-17T06:35:05.791Z,10272.00
2018-07-17T06:36:05.710Z,10196.00
2018-07-17T06:37:05.632Z,9984.00
2018-07-17T06:38:05.561Z,9728.00
2018-07-17T06:39:05.486Z,9600.00
2018-07-17T06:40:05.414Z,9464.00
2018-07-17T06:41:05.339Z,9536.00
2018-07-17T06:42:05.259Z,9692.00
2018-07-17T06:43:05.184Z,9692.00
2018-07-17T06:44:05.112Z,9572.00
2018-07-17T06:45:05.037Z,9428.00
2018-07-17T06:46:04.958Z,9228.00
2018-07-17T06:47:04.883Z,9096.00
2018-07-17T06:48:04.811Z,9004.00
2018-07-17T06:49:04.737Z,8928.00
2018-07-17T06:50:04.676Z,8948.00
2018-07-17T06:51:04.603Z,8936.00
2018-07-17T06:52:04.522Z,8804.00
2018-07-17T06:53:04.448Z,8876.00
2018-07-17T06:54:04.377Z,8868.00
2018-07-17T06:55:04.303Z,8780.00
2018-07-17T06:56:04.230Z,8724.00
2018-07-17T06:57:04.156Z,8404.00
2018-07-17T06:58:04.075Z,8252.00
2018-07-17T06:59:04.009Z,8316.00
2018-07-17T07:00:03.930Z,8324.00
2018-07-17T07:01:03.855Z,8180.00
2018-07-17T07:02:03.776Z,8264.00
2018-07-17T07:03:03.704Z,8728.00
2018-07-17T07:04:03.636Z,8652.00
2018-07-17T07:05:03.562Z,8788.00
2018-07-17T07:06:03.491Z,8748.00
2018-07-17T07:07:03.416Z,8660.00
2018-07-17T07:08:03.338Z,8600.00
2018-07-17T07:09:03.264Z,8572.00
2018-07-17T07:10:03.192Z,8540.00
2018-07-17T07:11:03.118Z,8552.00
2018-07-17T07:12:03.041Z,8668.00
2018-07-17T07:13:02.967Z,9088.00
2018-07-17T07:14:02.899Z,9128.00
2018-07-17T07:15:02.826Z,9396.00
2018-07-17T07:16:02.750Z,9568.00
2018-07-17T07:17:02.675Z,10124.00
2018-07-17T07:18:02.600Z,11164.00
2018-07-17T07:19:02.525Z,13188.00
2018-07-17T07:20:02.453Z,12532.00
2018-07-17T07:21:02.390Z,12160.00
2018-07-17T07:22:02.314Z,11392.00
2018-07-17T07:23:02.239Z,11076.00
2018-07-17T07:24:02.162Z,11232.00
2018-07-17T07:25:02.091Z,11852.00
2018-07-17T07:26:02.013Z,12444.00
2018-07-17T07:27:01.939Z,11848.00
2018-07-17T07:28:01.879Z,11316.00
2018-07-17T07:29:01.804Z,11228.00
2018-07-17T07:30:01.729Z,11140.00
2018-07-17T07:31:01.670Z,11492.00
2018-07-17T07:32:01.580Z,11912.00
2018-07-17T07:33:01.520Z,12232.00
2018-07-17T07:34:01.460Z,12400.00
2018-07-17T07:35:01.368Z,13024.00
2018-07-17T07:36:01.289Z,13468.00
2018-07-17T07:37:01.214Z,14084.00
2018-07-17T07:38:01.140Z,14788.00
2018-07-17T07:39:01.066Z,13988.00
2018-07-17T07:40:01.005Z,13904.00
2018-07-17T07:41:00.929Z,15088.00
2018-07-17T07:42:00.856Z,16384.00
2018-07-17T07:43:00.780Z,18016.00
2018-07-17T07:44:00.714Z,15648.00
2018-07-17T07:45:00.640Z,17856.00
2018-07-17T07:46:00.565Z,18048.00
2018-07-17T07:47:00.495Z,18112.00
2018-07-17T07:48:00.416Z,16864.00
2018-07-17T07:49:00.354Z,15488.00
2018-07-17T07:50:00.283Z,16256.00
2018-07-17T07:51:00.204Z,14256.00
2018-07-17T07:52:00.132Z,13956.00
2018-07-17T07:53:00.068Z,12440.00
2018-07-17T07:53:59.992Z,11472.00
2018-07-17T07:54:59.921Z,10400.00
2018-07-17T07:55:59.854Z,12320.00
2018-07-17T07:56:59.780Z,12588.00
2018-07-17T07:57:59.704Z,12116.00
2018-07-17T07:58:59.641Z,12944.00
2018-07-17T07:59:59.581Z,12264.00
2018-07-17T08:00:59.496Z,11348.00
2018-07-17T08:01:59.421Z,11296.00
2018-07-17T08:02:59.358Z,10768.00
2018-07-17T08:03:59.293Z,10764.00
2018-07-17T08:04:59.219Z,10560.00
2018-07-17T08:05:59.144Z,10328.00
2018-07-17T08:06:59.072Z,9708.00
2018-07-17T08:07:59.009Z,9464.00
2018-07-17T08:08:58.931Z,9584.00
2018-07-17T08:09:58.856Z,9796.00
2018-07-17T08:10:58.794Z,9872.00
2018-07-17T08:11:58.740Z,10148.00
2018-07-17T08:12:58.648Z,10528.00
2018-07-17T08:13:58.583Z,11028.00
2018-07-17T08:14:58.514Z,11476.00
2018-07-17T08:15:58.444Z,12160.00
2018-07-17T08:16:58.370Z,12792.00
2018-07-17T08:17:58.293Z,13276.00
2018-07-17T08:18:58.236Z,13664.00
2018-07-17T08:19:58.161Z,13732.00
2018-07-17T08:20:58.083Z,13936.00
2018-07-17T08:21:58.039Z,13904.00
2018-07-17T08:22:57.945Z,13996.00
2018-07-17T08:23:57.884Z,14068.00
2018-07-17T08:24:57.810Z,14124.00
2018-07-17T08:25:57.748Z,14148.00
2018-07-17T08:26:57.673Z,14176.00
2018-07-17T08:27:57.595Z,14084.00
2018-07-17T08:28:57.534Z,14076.00
2018-07-17T08:29:57.459Z,14112.00
2018-07-17T08:30:57.395Z,14052.00
2018-07-17T08:31:57.326Z,13952.00
2018-07-17T08:32:57.261Z,13956.00
2018-07-17T08:33:57.186Z,13752.00
2018-07-17T08:34:57.123Z,13828.00
2018-07-17T08:35:57.061Z,13656.00
2018-07-17T08:36:56.986Z,13500.00
2018-07-17T08:37:56.922Z,13296.00
2018-07-17T08:38:56.861Z,13116.00
2018-07-17T08:39:56.772Z,12936.00
2018-07-17T08:40:56.710Z,12888.00
2018-07-17T08:41:56.646Z,12924.00
2018-07-17T08:42:56.571Z,12936.00
2018-07-17T08:43:56.512Z,12980.00
2018-07-17T08:44:56.436Z,13168.00
2018-07-17T08:45:56.376Z,13348.00
2018-07-17T08:46:56.299Z,13456.00
2018-07-17T08:47:56.235Z,13588.00
2018-07-17T08:48:56.172Z,13724.00
2018-07-17T08:49:56.097Z,14040.00
2018-07-17T08:50:56.036Z,14348.00
2018-07-17T08:51:55.963Z,14712.00
2018-07-17T08:52:55.899Z,15024.00
2018-07-17T08:53:55.825Z,15384.00
2018-07-17T08:54:55.763Z,15636.00
2018-07-17T08:55:55.697Z,15808.00
2018-07-17T08:56:55.623Z,15920.00
2018-07-17T08:57:55.561Z,15956.00
2018-07-17T08:58:55.511Z,16000.00
2018-07-17T08:59:55.425Z,15988.00
2018-07-17T09:00:55.366Z,15720.00
2018-07-17T09:01:55.288Z,15548.00
2018-07-17T09:02:55.225Z,15704.00
2018-07-17T09:03:55.161Z,16212.00
2018-07-17T09:04:55.087Z,16248.00
2018-07-17T09:05:55.059Z,16256.00
2018-07-17T09:06:54.966Z,16480.00
2018-07-17T09:07:54.912Z,15896.00
2018-07-17T09:08:54.824Z,16464.00
2018-07-17T09:09:54.762Z,16604.00
2018-07-17T09:10:54.714Z,16444.00
2018-07-17T09:11:54.632Z,15520.00
2018-07-17T09:12:54.566Z,16484.00
2018-07-17T09:13:54.515Z,16928.00
2018-07-17T09:14:54.443Z,16800.00
2018-07-17T09:15:54.363Z,17024.00
2018-07-17T09:16:54.313Z,17504.00
2018-07-17T09:17:54.239Z,17760.00
2018-07-17T09:18:54.175Z,18016.00
2018-07-17T09:19:54.115Z,18080.00
2018-07-17T09:20:54.043Z,18496.00
2018-07-17T09:21:53.979Z,18336.00
2018-07-17T09:22:53.918Z,18464.00
2018-07-17T09:23:53.854Z,18304.00
2018-07-17T09:24:53.792Z,17696.00
2018-07-17T09:25:53.716Z,17376.00
2018-07-17T09:26:53.654Z,17056.00
2018-07-17T09:27:53.601Z,17664.00
2018-07-17T09:28:53.539Z,19392.00
2018-07-17T09:29:53.469Z,21440.00
2018-07-17T09:30:53.404Z,21952.00
2018-07-17T09:31:53.342Z,21632.00
2018-07-17T09:32:53.268Z,23776.00
2018-07-17T09:33:53.217Z,22592.00
2018-07-17T09:34:53.142Z,21792.00
2018-07-17T09:35:53.077Z,23040.00
2018-07-17T09:36:53.015Z,23072.00
2018-07-17T09:37:52.952Z,22432.00
2018-07-17T09:38:52.931Z,23072.00
2018-07-17T09:39:52.815Z,24960.00
2018-07-17T09:40:52.753Z,24512.00
2018-07-17T09:41:52.694Z,16076.00
2018-07-17T09:42:52.628Z,14404.00
2018-07-17T09:43:52.568Z,11784.00
2018-07-17T09:44:52.505Z,12128.00
2018-07-17T09:45:52.443Z,11932.00
2018-07-17T09:46:52.368Z,12448.00
2018-07-17T09:47:52.303Z,9312.00
2018-07-17T09:48:52.241Z,9208.00
2018-07-17T09:49:52.179Z,8672.00
2018-07-17T09:50:52.121Z,8880.00
2018-07-17T09:51:52.055Z,9060.00
2018-07-17T09:52:51.984Z,9964.00
2018-07-17T09:53:51.919Z,9704.00
2018-07-17T09:54:51.855Z,9812.00
2018-07-17T09:55:51.796Z,9992.00
2018-07-17T09:56:51.723Z,9676.00
2018-07-17T09:57:51.656Z,8864.00
2018-07-17T09:58:51.596Z,9160.00
2018-07-17T09:59:51.518Z,8636.00
2018-07-17T10:00:51.455Z,9148.00
2018-07-17T10:01:51.392Z,8784.00
2018-07-17T10:02:51.319Z,9752.00
2018-07-17T10:03:51.256Z,14436.00
2018-07-17T10:04:51.199Z,15948.00
2018-07-17T10:05:51.169Z,14408.00
2018-07-17T10:06:51.056Z,16572.00
2018-07-17T10:07:50.992Z,14216.00
2018-07-17T10:08:50.917Z,16176.00
2018-07-17T10:09:50.855Z,9944.00
2018-07-17T10:10:50.791Z,9320.00
2018-07-17T10:11:50.718Z,8256.00
2018-07-17T10:12:50.654Z,8692.00
2018-07-17T10:13:50.582Z,8756.00
2018-07-17T10:14:50.519Z,7844.00
2018-07-17T10:15:50.458Z,11412.00
2018-07-17T10:16:50.385Z,7356.00
2018-07-17T10:17:50.323Z,7128.00
2018-07-17T10:18:50.258Z,6972.00
2018-07-17T10:19:50.244Z,6940.00
2018-07-17T10:20:50.123Z,6940.00
2018-07-17T10:21:50.081Z,6848.00
2018-07-17T10:22:49.982Z,6752.00
2018-07-17T10:23:49.922Z,6700.00
2018-07-17T10:24:49.848Z,6732.00
2018-07-17T10:25:49.784Z,6764.00
2018-07-17T10:26:49.734Z,6680.00
2018-07-17T10:27:49.649Z,6812.00
2018-07-17T10:28:49.597Z,6848.00
2018-07-17T10:29:49.511Z,6912.00
2018-07-17T10:30:49.450Z,6876.00
2018-07-17T10:31:49.383Z,6816.00
2018-07-17T10:32:49.308Z,6704.00
2018-07-17T10:33:49.246Z,6664.00
2018-07-17T10:34:49.173Z,6656.00
2018-07-17T10:35:49.111Z,6580.00
2018-07-17T10:36:49.036Z,6460.00
2018-07-17T10:37:48.974Z,6340.00
2018-07-17T10:38:48.900Z,6292.00
2018-07-17T10:39:48.839Z,6284.00
2018-07-17T10:40:48.771Z,6280.00
2018-07-17T10:41:48.697Z,6344.00
2018-07-17T10:42:48.637Z,6972.00
2018-07-17T10:43:48.561Z,23008.00
2018-07-17T10:44:48.498Z,6808.00
2018-07-17T10:45:48.423Z,6892.00
2018-07-17T10:46:48.359Z,6944.00
2018-07-17T10:47:48.288Z,7024.00
2018-07-17T10:48:48.226Z,8460.00
2018-07-17T10:49:48.163Z,7132.00
2018-07-17T10:50:48.100Z,8668.00
2018-07-17T10:51:48.012Z,7848.00
2018-07-17T10:52:47.949Z,25312.00
2018-07-17T10:53:47.874Z,26112.00
2018-07-17T10:54:47.811Z,29408.00
2018-07-17T10:55:47.739Z,30080.00
2018-07-17T10:56:47.678Z,30144.00
2018-07-17T10:57:47.603Z,30016.00
2018-07-17T10:58:47.552Z,29984.00
2018-07-17T10:59:47.475Z,30432.00
2018-07-17T11:00:47.435Z,30304.00
2018-07-17T11:01:47.338Z,29632.00
2018-07-17T11:02:47.275Z,30112.00
2018-07-17T11:03:47.214Z,28864.00
2018-07-17T11:04:47.139Z,28736.00
2018-07-17T11:05:47.078Z,29344.00
2018-07-17T11:06:47.016Z,27904.00
2018-07-17T11:07:46.955Z,28960.00
2018-07-17T11:08:46.880Z,29696.00
2018-07-17T11:09:46.813Z,30400.00
2018-07-17T11:10:46.751Z,31424.00
2018-07-17T11:11:46.690Z,31552.00
2018-07-17T11:12:46.628Z,30720.00
2018-07-17T11:13:46.623Z,31264.00
2018-07-17T11:14:46.503Z,32288.00
2018-07-17T11:15:46.453Z,32160.00
2018-07-17T11:16:46.382Z,31616.00
2018-07-17T11:17:46.303Z,32256.00
2018-07-17T11:18:46.254Z,32704.00
2018-07-17T11:19:46.183Z,33504.00
2018-07-17T11:20:46.113Z,34304.00
2018-07-17T11:21:46.053Z,32896.00
2018-07-17T11:22:45.989Z,33088.00
2018-07-17T11:23:45.931Z,33792.00
2018-07-17T11:24:45.866Z,33824.00
2018-07-17T11:25:45.804Z,35040.00
2018-07-17T11:26:45.742Z,36768.00
2018-07-17T11:27:45.678Z,37472.00
2018-07-17T11:28:45.616Z,38848.00
2018-07-17T11:29:45.553Z,39968.00
2018-07-17T11:30:45.491Z,39808.00
2018-07-17T11:31:45.432Z,40768.00
2018-07-17T11:32:45.378Z,41920.00
2018-07-17T11:33:45.303Z,44128.00
2018-07-17T11:34:45.241Z,44128.00
2018-07-17T11:35:45.182Z,45024.00
2018-07-17T11:36:45.118Z,45664.00
2018-07-17T11:37:45.056Z,45632.00
2018-07-17T11:38:45.032Z,45664.00
2018-07-17T11:39:44.931Z,45984.00
2018-07-17T11:40:44.866Z,47200.00
2018-07-17T11:41:44.804Z,48992.00
2018-07-17T11:42:44.741Z,48544.00
2018-07-17T11:43:44.683Z,49728.00
2018-07-17T11:44:44.620Z,51008.00
2018-07-17T11:45:44.565Z,48864.00
2018-07-17T11:46:44.494Z,50816.00
2018-07-17T11:47:44.497Z,54528.00
2018-07-17T11:48:44.369Z,56576.00
2018-07-17T11:49:44.309Z,58336.00
2018-07-17T11:50:44.248Z,58304.00
2018-07-17T11:51:44.179Z,57536.00
2018-07-17T11:52:44.130Z,57856.00
2018-07-17T11:53:44.060Z,58432.00
2018-07-17T11:54:43.992Z,59680.00
2018-07-17T11:55:43.933Z,59552.00
2018-07-17T11:56:43.872Z,59488.00
2018-07-17T11:57:43.812Z,59936.00
2018-07-17T11:58:43.760Z,61728.00
2018-07-17T11:59:43.693Z,60064.00
2018-07-17T12:00:43.632Z,59008.00
2018-07-17T12:01:43.569Z,58912.00
2018-07-17T12:02:43.506Z,61120.00
2018-07-17T12:03:43.443Z,62464.00
2018-07-17T12:04:43.382Z,62976.00
2018-07-17T12:05:43.385Z,61280.00
2018-07-17T12:06:43.258Z,63968.00
2018-07-17T12:07:43.195Z,65824.00
2018-07-17T12:08:43.133Z,66112.00
2018-07-17T12:09:43.126Z,63648.00
2018-07-17T12:10:43.009Z,64192.00
2018-07-17T12:11:42.943Z,63968.00
2018-07-17T12:12:42.939Z,63104.00
2018-07-17T12:13:42.831Z,60576.00
2018-07-17T12:14:42.760Z,59232.00
2018-07-17T12:15:42.695Z,59456.00